Time;durP1;ratioP1;P1;durP2;ratioP2;P2;SDS_P1;SDS_P2;PMS_P1;PMS_P2;Temp;Humidity;BMP_temperature;BMP_pressure;BME280_temperature;BME280_humidity;BME280_pressure;Samples;Min_cycle;Max_cycle;Signal;HPM_P1;HPM_P2
2021/08/29 00:28:11;;;;;;;5.70;2.90;;;15.60;99.90;;;13.82;96.52;101631.25;2570139;30;137452;-39
2021/08/29 00:30:39;;;;;;;8.48;3.08;;;15.20;99.90;;;13.85;97.03;101621.75;2567589;30;136831;-40
2021/08/29 00:33:06;;;;;;;8.75;3.00;;;15.20;99.90;;;13.83;96.34;101619.22;2568368;30;139847;-39
2021/08/29 00:35:34;;;;;;;7.25;3.13;;;15.20;99.90;;;13.78;96.63;101627.25;2568182;30;138166;-40
2021/08/29 00:38:02;;;;;;;7.43;2.58;;;15.20;99.90;;;13.78;96.11;101614.38;2568591;30;138825;-39
2021/08/29 00:40:29;;;;;;;;;;;15.20;99.90;;;13.74;96.34;101620.50;2568114;30;139781;-40
2021/08/29 00:42:57;;;;;;;4.63;2.72;;;15.20;99.90;;;13.73;96.09;101618.81;2569367;30;138866;-39
2021/08/29 00:45:28;;;;;;;5.25;2.85;;;15.10;99.90;;;13.70;96.69;101613.75;2565669;30;138597;-39
2021/08/29 00:47:58;;;;;;;5.57;3.05;;;15.10;99.90;;;13.61;96.19;101608.53;2570736;30;137374;-39
2021/08/29 00:50:27;;;;;;;6.88;3.10;;;15.10;99.90;;;13.64;95.46;101613.56;2569643;30;136781;-39
2021/08/29 00:52:56;;;;;;;5.28;2.65;;;15.00;99.90;;;13.62;96.17;101614.81;2568711;30;139436;-39
2021/08/29 00:55:26;;;;;;;6.22;3.08;;;15.00;99.90;;;13.64;96.80;101610.81;2565816;30;138535;-39
2021/08/29 00:57:57;;;;;;;6.65;3.13;;;15.00;99.90;;;13.62;96.87;101607.47;2569542;30;140473;-39
2021/08/29 01:00:25;;;;;;;5.20;2.85;;;15.00;99.90;;;13.59;97.14;101612.53;2569043;30;137573;-39
2021/08/29 01:02:59;;;;;;;6.47;2.85;;;15.00;99.90;;;13.57;97.25;101606.41;2568271;30;139792;-40
2021/08/29 01:05:37;;;;;;;6.45;3.13;;;15.00;99.90;;;13.59;97.70;101598.81;2567064;30;138887;-39
2021/08/29 01:08:18;;;;;;;9.17;3.53;;;14.90;99.90;;;13.58;97.79;101600.72;2567619;30;137679;-39
2021/08/29 01:11:15;;;;;;;5.82;3.60;;;15.00;99.90;;;13.56;97.73;101600.09;2567164;30;139810;-39
2021/08/29 01:13:47;;;;;;;7.72;3.78;;;15.00;99.90;;;13.55;97.49;101606.63;2567923;30;140010;-39
2021/08/29 01:16:19;;;;;;;5.93;3.67;;;15.00;99.90;;;13.59;97.61;101607.03;2568156;30;138676;-39
2021/08/29 01:19:03;;;;;;;7.97;3.58;;;15.00;99.90;;;13.56;97.46;101596.50;2569353;30;139702;-39
2021/08/29 01:21:37;;;;;;;6.43;3.60;;;15.00;99.90;;;13.57;97.63;101592.69;2570390;30;138483;-40
2021/08/29 01:24:18;;;;;;;6.85;4.00;;;15.00;99.90;;;13.58;97.55;101600.72;2567351;30;140384;-39
2021/08/29 01:27:05;;;;;;;7.43;3.80;;;15.00;99.90;;;13.49;97.43;101597.34;2570648;30;137628;-39
2021/08/29 01:29:34;;;;;;;7.97;4.20;;;14.90;99.90;;;13.50;98.09;101604.53;2568742;30;140533;-39
2021/08/29 01:32:08;;;;;;;6.85;3.92;;;14.90;99.90;;;13.48;98.16;101600.28;2568223;30;139090;-39
2021/08/29 01:34:41;;;;;;;6.03;3.63;;;14.90;99.90;;;13.48;98.60;101608.53;2567477;30;139114;-39
2021/08/29 01:37:37;;;;;;;6.88;4.15;;;14.90;99.90;;;13.46;98.65;101597.78;2568876;30;137026;-39
2021/08/29 01:40:06;;;;;;;8.73;4.15;;;14.90;99.90;;;13.46;98.58;101605.16;2569269;30;138586;-39
2021/08/29 01:42:38;;;;;;;8.88;4.55;;;14.80;99.90;;;13.47;98.58;101598.63;2567447;30;138360;-39
2021/08/29 01:45:09;;;;;;;10.93;4.60;;;14.90;99.90;;;13.48;98.80;101600.28;2566533;30;138178;-39
2021/08/29 01:47:39;;;;;;;7.43;4.00;;;14.90;99.90;;;13.48;98.82;101597.56;2568104;30;140313;-39
2021/08/29 01:50:08;;;;;;;6.68;3.85;;;14.90;99.90;;;13.48;98.73;101594.81;2568862;30;138488;-39
2021/08/29 01:52:38;;;;;;;9.80;3.85;;;14.90;99.90;;;13.48;98.78;101601.16;2566096;30;139831;-39
2021/08/29 01:55:32;;;;;;;9.30;4.50;;;14.90;99.90;;;13.47;98.90;101596.72;2569653;30;136759;-39
2021/08/29 01:58:04;;;;;;;8.45;4.35;;;14.90;99.90;;;13.46;98.70;101602.41;2568943;30;139021;-40
2021/08/29 02:01:05;;;;;;;9.90;4.10;;;14.80;99.90;;;13.47;99.26;101606.84;2567999;30;139486;-39
2021/08/29 02:03:33;;;;;;;6.82;4.30;;;14.90;99.90;;;13.47;99.05;101604.09;2570470;30;138889;-39
2021/08/29 02:06:41;;;;;;;8.32;4.20;;;14.80;99.90;;;13.47;99.79;101606.84;2567689;30;138333;-39
2021/08/29 02:09:10;;;;;;;6.95;4.00;;;14.90;99.90;;;13.48;99.24;101598.41;2566935;30;137662;-39
2021/08/29 02:11:51;;;;;;;6.88;3.83;;;14.90;99.90;;;13.48;99.53;101603.03;2567490;30;138272;-39
2021/08/29 02:14:37;;;;;;;8.20;3.80;;;14.90;99.90;;;13.46;100.00;101597.78;2566839;30;138552;-39
2021/08/29 02:17:05;;;;;;;5.28;3.53;;;14.90;99.90;;;13.48;99.88;101600.28;2568119;30;138587;-39
2021/08/29 02:19:36;;;;;;;9.90;3.83;;;14.90;99.90;;;13.46;99.42;101599.66;2566708;30;137798;-39
2021/08/29 02:22:07;;;;;;;6.25;3.38;;;14.80;99.90;;;13.44;99.37;101599.91;2569323;30;139487;-41
2021/08/29 02:24:38;;;;;;;6.93;3.55;;;14.80;99.90;;;13.43;99.17;101590.00;2569222;30;139543;-41
2021/08/29 02:27:11;;;;;;;6.40;3.50;;;14.80;99.90;;;13.46;99.45;101599.66;2567601;30;140122;-39
2021/08/29 02:29:41;;;;;;;8.15;3.25;;;14.80;99.90;;;13.44;99.51;101594.41;2570618;30;138739;-39
2021/08/29 02:32:13;;;;;;;6.65;3.17;;;14.80;99.90;;;13.46;99.34;101588.72;2568617;30;139392;-39
2021/08/29 02:34:41;;;;;;;6.40;3.47;;;14.80;99.90;;;13.49;99.20;101588.28;2569336;30;140287;-39
2021/08/29 02:37:12;;;;;;;6.78;3.22;;;14.90;99.90;;;13.48;99.47;101589.34;2568604;30;138439;-39
2021/08/29 02:39:57;;;;;;;5.63;3.58;;;14.90;99.90;;;13.48;99.72;101595.69;2572488;30;137489;-39
2021/08/29 02:42:30;;;;;;;7.10;3.53;;;14.90;99.90;;;13.50;99.31;101587.22;2569127;30;140087;-39
2021/08/29 02:45:08;;;;;;;6.78;3.58;;;14.90;99.90;;;13.48;99.50;101583.84;2567141;30;137677;-39
2021/08/29 02:47:36;;;;;;;8.15;3.72;;;14.80;99.90;;;13.48;99.65;101590.19;2570402;30;138187;-39
2021/08/29 02:50:06;;;;;;;8.57;4.35;;;14.90;99.90;;;13.46;99.48;101580.47;2569465;30;138119;-39
2021/08/29 02:52:40;;;;;;;8.38;4.57;;;14.90;99.90;;;13.55;99.17;101581.97;2567823;30;138517;-40
2021/08/29 02:55:08;;;;;;;8.45;4.18;;;14.90;99.90;;;13.54;99.56;101585.75;2568761;30;137256;-39
2021/08/29 02:57:38;;;;;;;8.27;3.72;;;14.90;99.90;;;13.53;99.83;101578.59;2568011;30;139712;-39
2021/08/29 03:00:33;;;;;;;6.30;3.88;;;14.90;99.90;;;13.53;99.63;101573.13;2569824;30;136849;-39
2021/08/29 03:03:09;;;;;;;7.97;4.18;;;14.90;99.90;;;13.54;100.00;101573.94;2569740;30;139268;-39
2021/08/29 03:05:36;;;;;;;6.85;4.35;;;14.90;99.90;;;13.48;100.00;101571.00;2569552;30;139318;-41
2021/08/29 03:08:04;;;;;;;7.90;4.18;;;14.90;99.90;;;13.52;100.00;101575.00;2567214;30;140853;-39
2021/08/29 03:10:33;;;;;;;8.38;4.78;;;14.90;99.90;;;13.53;100.00;101573.13;2567823;30;139849;-39
2021/08/29 03:13:02;;;;;;;9.65;4.30;;;14.90;99.90;;;13.53;100.00;101573.13;2568182;30;139464;-39
2021/08/29 03:15:48;;;;;;;8.20;4.75;;;14.90;99.90;;;13.56;99.75;101571.81;2567665;30;139149;-39
2021/08/29 03:18:55;;;;;;;7.45;4.65;;;14.90;99.90;;;13.56;99.79;101569.94;2569330;30;137143;-46
2021/08/29 03:21:49;;;;;;;6.28;4.22;;;14.90;99.90;;;13.58;100.00;101572.44;2569014;30;137227;-39
2021/08/29 03:24:17;;;;;;;13.13;5.95;;;14.90;99.90;;;13.64;100.00;101566.97;2568111;30;138119;-38
2021/08/29 03:26:45;;;;;;;9.18;4.45;;;15.00;99.90;;;13.59;100.00;101566.78;2568061;30;139167;-39
2021/08/29 03:29:22;;;;;;;8.98;5.00;;;15.00;99.90;;;13.60;100.00;101564.84;2567723;30;140319;-39
2021/08/29 03:31:50;;;;;;;8.13;4.70;;;15.00;99.90;;;13.63;100.00;101564.41;2568866;30;139182;-42
2021/08/29 03:34:22;;;;;;;6.97;4.13;;;15.00;99.90;;;13.63;100.00;101564.41;2568763;30;138401;-38
2021/08/29 03:36:50;;;;;;;8.65;4.55;;;15.00;99.90;;;13.60;100.00;101560.22;2566471;30;139160;-39
2021/08/29 03:39:27;;;;;;;8.40;5.18;;;15.00;99.90;;;13.64;100.00;101566.97;2568523;30;139650;-39
2021/08/29 03:41:58;;;;;;;11.25;4.80;;;15.00;99.90;;;13.64;100.00;101568.84;2567494;30;138324;-39
2021/08/29 03:44:28;;;;;;;8.55;4.80;;;15.00;99.90;;;13.64;100.00;101564.22;2572498;30;139862;-40
2021/08/29 03:46:56;;;;;;;8.93;4.82;;;15.00;99.90;;;13.66;100.00;101555.78;2568292;30;137374;-39
2021/08/29 03:49:30;;;;;;;9.02;4.35;;;15.00;99.90;;;13.63;100.00;101558.94;2568108;30;137465;-39
2021/08/29 03:52:01;;;;;;;10.88;4.45;;;15.00;99.90;;;13.63;100.00;101551.56;2568129;30;138561;-39
2021/08/29 03:54:46;;;;;;;10.13;4.70;;;15.00;99.90;;;13.62;100.00;101560.84;2570067;30;137403;-39
2021/08/29 03:57:16;;;;;;;8.93;4.88;;;15.00;99.90;;;13.59;100.00;101558.53;2569028;30;137526;-39
2021/08/29 03:59:44;;;;;;;9.13;4.03;;;15.00;99.90;;;13.59;100.00;101558.53;2570115;30;140727;-39
2021/08/29 04:02:12;;;;;;;7.50;4.28;;;15.00;99.90;;;13.59;100.00;101557.69;2571065;30;138523;-39
2021/08/29 04:04:42;;;;;;;9.50;4.00;;;15.00;99.90;;;13.61;100.00;101561.06;2569931;30;140651;-39
2021/08/29 04:07:10;;;;;;;7.78;3.75;;;15.00;99.90;;;13.56;100.00;101553.50;2568454;30;138667;-39
2021/08/29 04:09:49;;;;;;;7.90;3.45;;;14.90;99.90;;;13.56;100.00;101548.00;2569161;30;140365;-39
2021/08/29 04:12:19;;;;;;;7.93;3.38;;;14.90;99.90;;;13.54;100.00;101547.38;2569820;30;136997;-39
2021/08/29 04:15:23;;;;;;;7.35;3.53;;;14.90;99.90;;;13.59;100.00;101544.84;2568249;30;137932;-39
2021/08/29 04:17:52;;;;;;;7.70;3.70;;;15.00;99.90;;;13.58;100.00;101551.38;2567152;30;139266;-39
2021/08/29 04:20:20;;;;;;;7.75;3.90;;;14.90;99.90;;;13.59;100.00;101542.09;2569402;30;139029;-39
2021/08/29 04:22:48;;;;;;;10.23;3.92;;;14.90;99.90;;;13.58;100.00;101543.16;2571661;30;136863;-39
2021/08/29 04:25:17;;;;;;;9.93;3.88;;;14.90;99.90;;;13.59;100.00;101542.09;2567625;30;139881;-39
2021/08/29 04:27:44;;;;;;;8.27;3.47;;;14.90;99.90;;;13.57;100.00;101537.88;2568808;30;139672;-40
2021/08/29 04:30:12;;;;;;;6.88;3.38;;;14.90;99.90;;;13.61;100.00;101542.72;2566468;30;138543;-40
2021/08/29 04:32:49;;;;;;;8.75;3.25;;;15.00;99.90;;;13.61;100.00;101539.97;2569038;30;138661;-39
2021/08/29 04:35:31;;;;;;;6.95;3.22;;;15.00;99.90;;;13.62;100.00;101541.66;2568918;30;139234;-39
2021/08/29 04:38:00;;;;;;;7.85;3.38;;;15.00;99.90;;;13.58;100.00;101534.94;2568069;30;138099;-39
2021/08/29 04:40:28;;;;;;;7.35;3.42;;;14.90;99.90;;;13.59;100.00;101543.97;2567929;30;139662;-39
2021/08/29 04:43:01;;;;;;;6.38;3.47;;;14.90;99.90;;;13.62;100.00;101536.19;2568007;30;139545;-39
2021/08/29 04:45:32;;;;;;;8.55;3.90;;;15.00;99.90;;;13.68;100.00;101544.59;2569625;30;139826;-39
2021/08/29 04:48:07;;;;;;;11.98;3.83;;;15.00;99.90;;;13.64;100.00;101545.03;2569343;30;139322;-39
2021/08/29 04:50:35;;;;;;;6.38;3.30;;;15.00;99.90;;;13.62;100.00;101538.91;2567037;30;139906;-39
2021/08/29 04:53:04;;;;;;;7.82;3.58;;;15.00;99.90;;;13.68;100.00;101541.84;2567836;30;139043;-39
2021/08/29 04:55:32;;;;;;;5.93;2.95;;;15.00;99.90;;;13.68;100.00;101541.84;2569126;30;137922;-39
2021/08/29 04:57:59;;;;;;;6.30;3.30;;;15.00;99.90;;;13.65;100.00;101537.63;2567197;30;140069;-39
2021/08/29 05:00:28;;;;;;;9.63;3.72;;;15.00;99.90;;;13.64;100.00;101533.19;2570722;30;138315;-39
2021/08/29 05:02:59;;;;;;;9.25;3.50;;;15.00;99.90;;;13.66;100.00;101531.94;2569010;30;138294;-39
2021/08/29 05:05:26;;;;;;;;;;;15.10;99.90;;;13.68;100.00;101539.97;2566024;30;140786;-40
2021/08/29 05:07:54;;;;;;;9.05;3.58;;;15.10;99.90;;;13.70;100.00;101534.25;2569627;30;136761;-39
2021/08/29 05:10:23;;;;;;;9.90;3.55;;;15.00;99.90;;;13.70;100.00;101537.84;2569465;30;139426;-39
2021/08/29 05:13:04;;;;;;;9.65;3.67;;;15.10;99.90;;;13.74;100.00;101535.50;2567880;30;138612;-39
2021/08/29 05:15:32;;;;;;;7.65;3.72;;;15.10;99.90;;;13.74;100.00;101538.22;2569249;30;138523;-39
2021/08/29 05:18:00;;;;;;;8.75;3.63;;;15.10;99.90;;;13.74;100.00;101538.22;2568389;30;137664;-39
2021/08/29 05:20:29;;;;;;;9.45;3.50;;;15.10;99.90;;;13.78;100.00;101539.47;2566751;30;138054;-39
2021/08/29 05:23:15;;;;;;;7.78;3.83;;;15.10;99.90;;;13.80;100.00;101540.97;2565546;30;137038;-39
2021/08/29 05:26:02;;;;;;;9.10;3.70;;;15.10;99.90;;;13.82;100.00;101535.28;2569193;30;137788;-39
2021/08/29 05:28:33;;;;;;;6.57;3.83;;;15.20;99.90;;;13.83;100.00;101536.97;2568989;30;138641;-40
2021/08/29 05:31:01;;;;;;;;;;;15.20;99.90;;;13.85;100.00;101543.06;2567877;30;140656;-39
2021/08/29 05:33:30;;;;;;;9.63;3.45;;;15.20;99.90;;;13.90;100.00;101537.75;2569966;30;138567;-39
2021/08/29 05:35:58;;;;;;;8.40;3.75;;;15.20;99.90;;;13.88;100.00;101537.13;2569848;30;139907;-39
2021/08/29 05:38:26;;;;;;;10.10;3.78;;;15.20;99.90;;;13.89;100.00;101536.09;2569417;30;138233;-39
2021/08/29 05:41:03;;;;;;;7.85;3.50;;;15.20;99.90;;;13.87;100.00;101543.69;2570213;30;139483;-39
2021/08/29 05:43:53;;;;;;;11.75;3.75;;;15.20;99.90;;;13.90;100.00;101539.66;2568410;30;137373;-39
2021/08/29 05:46:27;;;;;;;8.57;3.42;;;15.20;99.90;;;13.91;100.00;101542.19;2567931;30;138611;-39
2021/08/29 05:48:55;;;;;;;7.65;3.10;;;15.20;99.90;;;13.92;100.00;101543.88;2568182;30;138807;-39
2021/08/29 05:51:23;;;;;;;6.85;3.50;;;15.20;99.90;;;13.91;100.00;101546.81;2571753;30;140379;-39
2021/08/29 05:53:51;;;;;;;7.45;3.65;;;15.30;99.90;;;13.91;100.00;101544.06;2570946;30;138851;-40
2021/08/29 05:56:19;;;;;;;10.77;3.53;;;15.20;99.90;;;13.91;100.00;101544.06;2567535;30;139888;-39
2021/08/29 05:58:47;;;;;;;;;;;15.20;99.90;;;13.92;100.00;101543.88;2567441;30;138887;-39
2021/08/29 06:01:15;;;;;;;8.48;3.05;;;15.30;99.90;;;13.94;100.00;101544.50;2569622;30;140931;-39
2021/08/29 06:03:45;;;;;;;11.02;3.50;;;15.30;99.90;;;13.94;100.00;101543.66;2572611;30;139228;-39
2021/08/29 06:06:39;;;;;;;8.80;3.55;;;15.30;99.90;;;13.97;100.00;101540.47;2568756;30;137349;-39
2021/08/29 06:09:07;;;;;;;8.05;3.15;;;15.30;99.90;;;13.99;100.00;101537.50;2570314;30;139138;-39
2021/08/29 06:11:35;;;;;;;7.15;3.33;;;15.30;99.90;;;14.03;100.00;101547.84;2567724;30;137133;-39
2021/08/29 06:14:04;;;;;;;13.63;3.92;;;15.30;99.90;;;14.05;100.00;101548.47;2569172;30;138484;-39
2021/08/29 06:16:33;;;;;;;8.43;3.10;;;15.40;99.90;;;14.07;99.47;101540.84;2568524;30;139769;-40
2021/08/29 06:19:04;;;;;;;7.28;3.28;;;15.40;99.90;;;14.12;99.46;101540.19;2568893;30;138482;-38
2021/08/29 06:21:31;;;;;;;5.60;2.97;;;15.40;99.90;;;14.21;99.55;101543.53;2566205;30;139139;-39
2021/08/29 06:23:59;;;;;;;8.45;3.42;;;15.50;99.90;;;14.21;99.05;101540.78;2569792;30;139939;-39
2021/08/29 06:26:45;;;;;;;7.80;3.22;;;15.50;99.90;;;14.23;99.19;101536.75;2581263;30;137113;-40
2021/08/29 06:29:31;;;;;;;7.68;3.45;;;15.50;99.90;;;14.28;99.19;101538.84;2569719;30;136750;-41
2021/08/29 06:32:27;;;;;;;5.70;3.30;;;15.50;99.90;;;14.34;99.01;101537.13;2565962;30;137374;-41
2021/08/29 06:35:05;;;;;;;8.77;3.50;;;15.60;99.90;;;14.36;98.63;101532.25;2568606;30;138567;-41
2021/08/29 06:37:43;;;;;;;5.95;3.45;;;15.60;99.90;;;14.37;98.29;101528.44;2568182;30;138350;-43
2021/08/29 06:40:12;;;;;;;9.02;3.70;;;15.60;99.90;;;14.37;98.50;101531.19;2568177;30;138098;-40
2021/08/29 06:42:43;;;;;;;10.07;4.05;;;15.60;99.90;;;14.45;98.95;101527.31;2566464;30;138494;-41
2021/08/29 06:45:30;;;;;;;7.60;3.88;;;15.70;99.90;;;14.50;98.85;101524.78;2567815;30;136787;-42
2021/08/29 06:48:16;;;;;;;8.55;3.67;;;15.80;99.90;;;14.55;98.35;101526.84;2569330;30;136970;-42
2021/08/29 06:51:15;;;;;;;12.98;4.20;;;15.80;99.90;;;14.55;97.59;101522.19;2567731;30;136657;-40
2021/08/29 06:54:01;;;;;;;8.63;3.58;;;15.80;99.90;;;14.61;98.03;101524.06;2568932;30;136892;-41
2021/08/29 06:56:47;;;;;;;7.72;3.67;;;15.80;99.90;;;14.66;98.35;101515.16;2568091;30;136843;-41
2021/08/29 06:59:24;;;;;;;11.20;3.85;;;15.90;99.90;;;14.68;96.71;101519.34;2568329;30;137058;-44
2021/08/29 07:01:53;;;;;;;9.10;4.80;;;15.90;99.90;;;14.72;97.59;101517.03;2566761;30;140312;-41
2021/08/29 07:04:21;;;;;;;6.68;3.42;;;15.90;99.90;;;14.82;97.57;101514.63;2567026;30;139495;-41
2021/08/29 07:06:50;;;;;;;9.82;3.75;;;16.00;99.90;;;14.84;97.07;101513.53;2567492;30;136815;-41
2021/08/29 07:09:43;;;;;;;6.78;3.30;;;16.10;99.90;;;14.89;97.04;101517.31;2567396;30;137160;-40
2021/08/29 07:12:12;;;;;;;8.70;3.97;;;16.10;99.90;;;14.94;97.00;101516.66;2567735;30;139522;-41
2021/08/29 07:14:58;;;;;;;7.85;3.25;;;16.20;99.90;;;14.93;96.58;101520.47;2568647;30;137304;-40
2021/08/29 07:17:26;;;;;;;8.20;3.47;;;16.20;99.90;;;14.94;96.61;101511.16;2567769;30;139453;-41
2021/08/29 07:19:54;;;;;;;;;;;16.20;99.90;;;14.99;96.62;101511.31;2567415;30;139969;-41
2021/08/29 07:22:57;;;;;;;9.65;3.35;;;16.20;99.90;;;14.99;95.96;101511.31;2567119;30;136747;-41
2021/08/29 07:25:42;;;;;;;8.63;3.28;;;16.20;99.90;;;14.98;95.75;101517.00;2568510;30;137432;-40
2021/08/29 07:28:29;;;;;;;9.63;3.38;;;16.20;99.90;;;14.97;96.51;101513.44;2569241;30;136975;-40
2021/08/29 07:31:34;;;;;;;5.50;2.95;;;16.20;99.90;;;14.94;96.93;101503.72;2567276;30;137034;-42
2021/08/29 07:34:02;;;;;;;9.88;2.97;;;16.20;99.90;;;14.94;97.32;101508.41;2567863;30;139269;-41
2021/08/29 07:36:53;;;;;;;8.52;3.33;;;16.20;99.90;;;14.90;97.51;101510.75;2568405;30;137680;-40
2021/08/29 07:39:21;;;;;;;6.20;3.22;;;16.20;99.90;;;14.84;97.47;101500.66;2567345;30;138854;-41
2021/08/29 07:41:48;;;;;;;5.20;2.70;;;16.10;99.90;;;14.86;97.84;101514.19;2567964;30;138308;-40
2021/08/29 07:44:16;;;;;;;6.63;3.13;;;16.10;99.90;;;14.87;98.59;101510.38;2567200;30;138588;-43
2021/08/29 07:46:43;;;;;;;6.00;2.92;;;16.10;99.90;;;14.88;98.37;101509.31;2567375;30;139946;-40
2021/08/29 07:49:11;;;;;;;;;;;16.10;99.90;;;14.87;98.37;101510.38;2565614;30;139107;-40
2021/08/29 07:51:39;;;;;;;8.68;3.22;;;16.10;99.90;;;14.84;98.53;101511.66;2567533;30;140627;-44
2021/08/29 07:54:24;;;;;;;6.72;2.92;;;16.10;99.90;;;14.82;98.54;101511.03;2565857;30;136918;-41
2021/08/29 07:57:13;;;;;;;7.10;2.72;;;16.10;99.90;;;14.82;98.27;101509.13;2567438;30;138825;-41
2021/08/29 07:59:41;;;;;;;8.75;3.25;;;16.10;99.90;;;14.77;98.68;101505.38;2566719;30;138801;-40
2021/08/29 08:02:13;;;;;;;8.20;2.78;;;16.10;99.90;;;14.78;98.78;101507.88;2567144;30;139484;-40
2021/08/29 08:04:59;;;;;;;5.38;2.70;;;16.10;99.90;;;14.82;99.01;101506.38;2566699;30;136751;-44
2021/08/29 08:07:53;;;;;;;10.95;3.05;;;16.10;99.90;;;14.85;99.07;101515.22;2568543;30;137150;-40
2021/08/29 08:10:39;;;;;;;7.47;2.50;;;16.10;99.90;;;14.87;99.26;101513.13;2568465;30;136787;-40
2021/08/29 08:13:36;;;;;;;5.40;2.72;;;16.10;99.90;;;14.92;98.70;101514.09;2566875;30;137054;-40
2021/08/29 08:16:05;;;;;;;9.30;3.25;;;16.20;99.90;;;14.96;98.72;101515.34;2567211;30;139716;-41
2021/08/29 08:18:34;;;;;;;8.48;2.83;;;16.20;99.90;;;15.03;99.01;101517.19;2566673;30;139751;-40
2021/08/29 08:21:02;;;;;;;8.57;3.20;;;16.20;99.90;;;15.03;98.94;101512.53;2566031;30;139369;-40
2021/08/29 08:23:51;;;;;;;5.70;2.80;;;16.20;99.90;;;14.98;98.63;101509.63;2565438;30;140589;-40
2021/08/29 08:26:48;;;;;;;6.43;2.95;;;16.20;99.90;;;14.94;98.04;101524.88;2565774;30;136910;-40
2021/08/29 08:29:44;;;;;;;9.32;3.28;;;16.20;99.90;;;14.84;97.76;101510.78;2566382;30;136780;-40
2021/08/29 08:32:38;;;;;;;8.07;3.22;;;16.10;99.90;;;14.91;98.99;101519.84;2567195;30;136793;-40
2021/08/29 08:35:25;;;;;;;10.27;4.00;;;16.20;99.90;;;14.88;98.35;101520.28;2566698;30;139220;-41
2021/08/29 08:38:22;;;;;;;9.18;4.00;;;16.20;99.90;;;14.85;99.82;101521.56;2564340;30;137115;-40
2021/08/29 08:41:08;;;;;;;10.68;3.97;;;16.10;99.90;;;14.71;98.27;101520.84;2566129;30;138333;-41
2021/08/29 08:44:07;;;;;;;;;;;16.00;99.90;;;14.71;98.45;101518.09;2566510;30;136856;-40
2021/08/29 08:46:57;;;;;;;9.13;3.35;;;16.00;99.90;;;14.74;99.38;101501.16;2568627;30;136948;-41
2021/08/29 08:49:44;;;;;;;8.65;3.45;;;16.00;99.90;;;14.84;99.47;101514.41;2568060;30;136956;-40
2021/08/29 08:52:37;;;;;;;7.55;3.25;;;16.00;99.90;;;14.91;99.39;101512.44;2567541;30;137137;-40
2021/08/29 08:55:30;;;;;;;6.47;2.83;;;16.10;99.90;;;14.95;98.50;101510.09;2566387;30;136980;-40
2021/08/29 08:58:18;;;;;;;5.70;2.77;;;16.10;99.90;;;15.08;98.38;101514.63;2568294;30;137502;-40
2021/08/29 09:01:08;;;;;;;5.63;2.75;;;16.20;99.90;;;15.14;98.50;101510.13;2567544;30;136872;-40
2021/08/29 09:03:59;;;;;;;7.43;2.92;;;16.30;99.90;;;15.20;97.83;101504.53;2567850;30;136903;-40
2021/08/29 09:06:35;;;;;;;6.22;2.85;;;16.40;99.90;;;15.16;97.67;101508.00;2567226;30;137738;-42
2021/08/29 09:09:03;;;;;;;6.88;2.53;;;16.40;99.90;;;15.14;97.60;101499.13;2567529;30;139705;-40
2021/08/29 09:11:41;;;;;;;7.57;2.40;;;16.40;99.90;;;15.18;98.33;101508.59;2566507;30;138876;-41
2021/08/29 09:14:09;;;;;;;;;;;16.40;99.90;;;15.19;98.66;101500.13;2567392;30;139989;-40
2021/08/29 09:16:37;;;;;;;5.68;2.72;;;16.40;99.90;;;15.23;99.26;101503.25;2568199;30;137272;-40
2021/08/29 09:19:06;;;;;;;5.75;2.70;;;16.40;99.90;;;15.10;97.11;101502.31;2566728;30;140676;-40
2021/08/29 09:21:38;;;;;;;5.53;2.33;;;16.40;99.90;;;15.09;97.88;101497.06;2567790;30;139528;-41
2021/08/29 09:24:15;;;;;;;6.57;3.45;;;16.30;99.90;;;15.10;98.37;101501.47;2568146;30;138254;-40
2021/08/29 09:27:01;;;;;;;6.43;2.92;;;16.40;99.90;;;14.99;97.97;101500.31;2566742;30;139989;-40
2021/08/29 09:29:43;;;;;;;7.80;2.90;;;16.30;99.90;;;14.96;97.58;101490.59;2567243;30;137453;-42
2021/08/29 09:32:20;;;;;;;7.38;2.75;;;16.30;99.90;;;14.96;98.50;101487.03;2567829;30;138508;-41
2021/08/29 09:35:00;;;;;;;5.65;2.92;;;16.20;99.90;;;15.02;99.51;101488.88;2566781;30;139418;-40
2021/08/29 09:37:41;;;;;;;7.30;2.97;;;16.30;99.90;;;15.10;100.00;101494.06;2567564;30;137461;-40
2021/08/29 09:40:38;;;;;;;5.22;2.85;;;16.30;99.90;;;15.13;99.77;101494.72;2567002;30;139450;-43
2021/08/29 09:43:36;;;;;;;5.38;2.53;;;16.30;99.90;;;15.19;99.97;101491.03;2567036;30;136958;-40
2021/08/29 09:46:08;;;;;;;5.95;2.65;;;16.40;99.90;;;15.20;99.36;101493.56;2566072;30;137822;-40
2021/08/29 09:48:57;;;;;;;6.82;2.47;;;16.40;99.90;;;15.14;98.46;101490.91;2568307;30;136825;-43
2021/08/29 09:51:55;;;;;;;6.40;2.58;;;16.40;99.90;;;15.15;99.06;101498.06;2568626;30;138964;-40
2021/08/29 09:54:43;;;;;;;5.30;2.30;;;16.40;99.90;;;15.10;98.62;101491.31;2563946;30;138363;-40
2021/08/29 09:57:32;;;;;;;5.78;2.33;;;16.40;99.90;;;15.04;98.14;101494.97;2568208;30;136917;-41
2021/08/29 10:00:10;;;;;;;6.15;2.10;;;16.30;99.90;;;15.07;98.30;101488.19;2566298;30;137696;-41
2021/08/29 10:02:43;;;;;;;5.82;2.10;;;16.30;99.90;;;15.13;99.13;101487.28;2564952;30;138136;-41
2021/08/29 10:05:19;;;;;;;3.53;1.88;;;16.30;99.90;;;15.18;99.28;101481.94;2566722;30;139544;-41
2021/08/29 10:07:58;;;;;;;4.93;2.15;;;16.40;99.90;;;15.23;99.16;101484.03;2563772;30;139796;-40
2021/08/29 10:10:30;;;;;;;5.78;2.20;;;16.40;99.90;;;15.26;99.90;101467.06;2567745;30;139394;-40
2021/08/29 10:13:03;;;;;;;4.78;2.10;;;16.50;99.90;;;15.27;98.77;101479.75;2569376;30;139485;-41
2021/08/29 10:15:36;;;;;;;4.95;2.10;;;16.50;99.90;;;15.29;99.19;101471.28;2568007;30;138882;-40
2021/08/29 10:18:47;;;;;;;4.95;2.30;;;16.50;99.90;;;15.31;98.66;101478.22;2568156;30;137541;-41
2021/08/29 10:21:34;;;;;;;5.30;2.47;;;16.50;99.90;;;15.30;98.19;101470.22;2567121;30;137058;-40
2021/08/29 10:24:07;;;;;;;5.38;2.60;;;16.50;99.90;;;15.25;99.14;101468.13;2566001;30;140681;-40
2021/08/29 10:26:39;;;;;;;4.47;2.30;;;16.50;99.90;;;15.24;99.25;101460.97;2567310;30;139483;-40
2021/08/29 10:29:32;;;;;;;3.22;1.73;;;16.50;99.90;;;15.18;98.64;101470.94;2568845;30;137500;-40
2021/08/29 10:32:35;;;;;;;5.28;1.75;;;16.50;99.90;;;15.10;97.99;101476.75;2566014;30;136777;-40
2021/08/29 10:35:33;;;;;;;3.55;1.70;;;16.40;99.90;;;15.12;98.97;101484.75;2564115;30;137687;-40
2021/08/29 10:38:22;;;;;;;4.57;1.60;;;16.40;99.90;;;15.04;98.76;101475.75;2567869;30;137276;-41
2021/08/29 10:41:22;;;;;;;2.75;1.60;;;16.30;99.90;;;15.00;98.48;101479.19;2567904;30;137466;-41
2021/08/29 10:43:54;;;;;;;5.72;1.65;;;16.30;99.90;;;14.98;99.39;101473.06;2567773;30;138635;-40
2021/08/29 10:46:46;;;;;;;2.42;1.27;;;16.30;99.90;;;14.95;99.61;101475.19;2566903;30;137767;-40
2021/08/29 10:49:35;;;;;;;3.05;1.60;;;16.20;99.90;;;14.93;99.07;101468.25;2567548;30;136712;-40
2021/08/29 10:52:05;;;;;;;5.22;1.70;;;16.20;99.90;;;14.91;99.77;101471.22;2567879;30;138442;-41
2021/08/29 10:54:33;;;;;;;3.50;1.70;;;16.20;99.90;;;14.94;100.00;101476.25;2568400;30;138825;-40
2021/08/29 10:57:40;;;;;;;2.80;1.50;;;16.20;99.90;;;15.00;100.00;101468.19;2568329;30;139196;-41
2021/08/29 11:00:25;;;;;;;2.95;1.63;;;16.20;99.90;;;14.98;100.00;101464.81;2567545;30;138890;-40
2021/08/29 11:02:57;;;;;;;4.85;1.77;;;16.20;99.90;;;14.97;100.00;101461.25;2568125;30;138497;-42
2021/08/29 11:05:54;;;;;;;5.00;1.77;;;16.20;99.90;;;14.98;100.00;101462.06;2567857;30;136984;-40
2021/08/29 11:08:30;;;;;;;3.95;2.00;;;16.30;99.90;;;14.97;100.00;101458.50;2567868;30;140254;-41
2021/08/29 11:11:00;;;;;;;4.28;1.83;;;16.30;99.90;;;14.95;100.00;101455.97;2565142;30;137921;-40
2021/08/29 11:13:36;;;;;;;4.05;2.10;;;16.20;99.90;;;14.98;100.00;101456.56;2568814;30;137324;-44